createdAt,value
2018-09-09T00:00:57.983Z,14.22
2018-09-09T00:03:26.631Z,14.19
2018-09-09T00:05:55.621Z,14.17
2018-09-09T00:08:24.549Z,14.17
2018-09-09T00:10:53.302Z,14.12
2018-09-09T00:13:22.327Z,14.17
2018-09-09T00:15:51.083Z,14.19
2018-09-09T00:18:19.777Z,14.19
2018-09-09T00:20:48.454Z,14.16
2018-09-09T00:23:17.142Z,14.15
2018-09-09T00:25:45.957Z,14.15
2018-09-09T00:28:14.721Z,14.16
2018-09-09T00:30:43.434Z,14.16
2018-09-09T00:33:12.081Z,14.18
2018-09-09T00:35:40.749Z,14.15
2018-09-09T00:38:09.599Z,14.16
2018-09-09T00:40:38.396Z,14.14
2018-09-09T00:43:07.283Z,14.12
2018-09-09T00:45:35.957Z,14.07
2018-09-09T00:48:04.618Z,14.06
2018-09-09T00:50:38.869Z,14.04
2018-09-09T00:53:13.147Z,14.07
2018-09-09T00:55:42.078Z,14.02
2018-09-09T00:58:10.821Z,14.08
2018-09-09T01:00:45.083Z,14.06
2018-09-09T01:03:13.853Z,14.06
2018-09-09T01:05:42.667Z,14.05
2018-09-09T01:08:11.406Z,14.03
2018-09-09T01:10:40.545Z,14.09
2018-09-09T01:13:09.298Z,14.06
2018-09-09T01:15:38.028Z,14.07
2018-09-09T01:18:07.239Z,14.09
2018-09-09T01:20:35.997Z,14.09
2018-09-09T01:23:04.646Z,14.12
2018-09-09T01:25:33.506Z,14.25
2018-09-09T01:28:02.233Z,14.32
2018-09-09T01:30:30.889Z,14.25
2018-09-09T01:32:59.649Z,14.19
2018-09-09T01:35:28.386Z,14.19
2018-09-09T01:37:57.250Z,14.15
2018-09-09T01:40:25.925Z,14.17
2018-09-09T01:42:54.587Z,14.17
2018-09-09T01:45:23.238Z,14.36
2018-09-09T01:47:51.885Z,14.49
2018-09-09T01:50:21.441Z,14.51
2018-09-09T01:52:50.148Z,14.39
2018-09-09T01:55:18.791Z,14.29
2018-09-09T01:57:47.517Z,14.26
2018-09-09T02:00:16.214Z,14.19
2018-09-09T02:02:45.227Z,14.17
2018-09-09T02:05:14.801Z,14.12
2018-09-09T02:07:44.956Z,14.16
2018-09-09T02:10:13.644Z,14.00
2018-09-09T02:12:42.426Z,13.97
2018-09-09T02:15:11.082Z,13.93
2018-09-09T02:17:39.947Z,13.94
2018-09-09T02:20:09.097Z,13.91
2018-09-09T02:22:37.745Z,13.90
2018-09-09T02:25:07.156Z,13.85
2018-09-09T02:27:35.992Z,13.74
2018-09-09T02:30:05.314Z,13.69
2018-09-09T02:32:37.219Z,13.66
2018-09-09T02:35:05.920Z,13.64
2018-09-09T02:37:34.596Z,13.65
2018-09-09T02:40:03.320Z,13.63
2018-09-09T02:42:32.055Z,13.69
2018-09-09T02:45:00.759Z,13.72
2018-09-09T02:47:29.481Z,13.75
2018-09-09T02:49:58.213Z,13.76
2018-09-09T02:52:26.842Z,13.77
2018-09-09T02:57:29.685Z,13.87
2018-09-09T02:59:58.373Z,13.92
2018-09-09T03:02:27.205Z,13.86
2018-09-09T03:04:56.002Z,13.87
2018-09-09T03:07:25.490Z,13.77
2018-09-09T03:09:54.169Z,13.76
2018-09-09T03:12:23.065Z,13.72
2018-09-09T03:14:52.027Z,13.68
2018-09-09T03:17:20.697Z,13.61
2018-09-09T03:19:49.406Z,13.68
2018-09-09T03:22:18.142Z,13.69
2018-09-09T03:24:46.957Z,13.62
2018-09-09T03:27:15.630Z,13.77
2018-09-09T03:29:44.423Z,13.72
2018-09-09T03:32:13.181Z,13.75
2018-09-09T03:34:42.085Z,13.68
2018-09-09T03:37:10.757Z,13.57
2018-09-09T03:39:39.570Z,13.42
2018-09-09T03:42:08.314Z,13.40
2018-09-09T03:44:37.109Z,13.35
2018-09-09T03:47:05.871Z,13.31
2018-09-09T03:49:34.575Z,13.29
2018-09-09T03:52:03.411Z,13.25
2018-09-09T03:54:32.669Z,13.18
2018-09-09T03:57:02.011Z,13.10
2018-09-09T03:59:31.252Z,13.09
2018-09-09T04:01:59.909Z,13.05
2018-09-09T04:04:28.774Z,13.04
2018-09-09T04:06:57.568Z,12.97
2018-09-09T04:09:26.309Z,12.99
2018-09-09T04:11:56.062Z,12.97
2018-09-09T04:14:24.760Z,12.95
2018-09-09T04:16:53.530Z,13.01
2018-09-09T04:19:22.285Z,13.00
2018-09-09T04:21:52.390Z,13.04
2018-09-09T04:24:22.664Z,12.96
2018-09-09T04:26:51.677Z,12.96
2018-09-09T04:29:20.766Z,12.95
2018-09-09T04:31:49.407Z,12.94
2018-09-09T04:34:18.140Z,12.94
2018-09-09T04:36:46.912Z,12.95
2018-09-09T04:39:15.832Z,12.95
2018-09-09T04:41:45.013Z,12.97
2018-09-09T04:44:14.407Z,12.99
2018-09-09T04:46:43.090Z,12.98
2018-09-09T04:49:11.783Z,12.98
2018-09-09T04:51:40.532Z,12.99
2018-09-09T04:54:09.221Z,13.07
2018-09-09T04:56:37.918Z,13.04
2018-09-09T04:59:06.737Z,13.08
2018-09-09T05:01:35.520Z,13.02
2018-09-09T05:04:04.301Z,13.12
2018-09-09T05:06:33.147Z,13.20
2018-09-09T05:09:01.848Z,13.29
2018-09-09T05:11:30.467Z,13.27
2018-09-09T05:13:59.378Z,13.34
2018-09-09T05:16:28.131Z,13.47
2018-09-09T05:18:57.042Z,13.51
2018-09-09T05:21:25.793Z,13.53
2018-09-09T05:23:54.622Z,13.55
2018-09-09T05:26:23.421Z,13.60
2018-09-09T05:28:52.157Z,13.62
2018-09-09T05:31:21.085Z,13.67
2018-09-09T05:33:49.897Z,13.64
2018-09-09T05:36:18.626Z,13.61
2018-09-09T05:38:47.666Z,13.58
2018-09-09T05:41:16.439Z,13.51
2018-09-09T05:43:45.352Z,13.49
2018-09-09T05:46:14.366Z,13.47
2018-09-09T05:48:43.642Z,13.49
2018-09-09T05:51:12.418Z,13.55
2018-09-09T05:53:41.136Z,13.58
2018-09-09T05:56:10.061Z,13.66
2018-09-09T05:58:38.727Z,13.69
2018-09-09T06:01:07.642Z,13.66
2018-09-09T06:03:36.516Z,13.73
2018-09-09T06:06:05.301Z,13.76
2018-09-09T06:08:33.995Z,13.94
2018-09-09T06:11:02.628Z,14.04
2018-09-09T06:13:31.288Z,14.10
2018-09-09T06:15:59.958Z,14.30
2018-09-09T06:18:28.626Z,14.50
2018-09-09T06:20:57.290Z,14.76
2018-09-09T06:23:26.080Z,14.81
2018-09-09T06:25:54.817Z,14.82
2018-09-09T06:28:23.569Z,14.81
2018-09-09T06:30:52.317Z,14.78
2018-09-09T06:33:20.982Z,14.70
2018-09-09T06:35:49.670Z,14.73
2018-09-09T06:38:18.374Z,14.80
2018-09-09T06:40:47.142Z,14.92
2018-09-09T06:43:15.780Z,14.99
2018-09-09T06:45:44.866Z,14.98
2018-09-09T06:48:13.610Z,15.08
2018-09-09T06:50:42.250Z,15.21
2018-09-09T06:53:10.962Z,15.48
2018-09-09T06:55:39.617Z,15.64
2018-09-09T06:58:08.679Z,15.70
2018-09-09T07:00:37.574Z,15.70
2018-09-09T07:03:06.545Z,15.79
2018-09-09T07:05:35.198Z,15.69
2018-09-09T07:08:03.852Z,15.76
2018-09-09T07:10:32.859Z,15.83
2018-09-09T07:13:01.504Z,15.68
2018-09-09T07:15:30.226Z,16.06
2018-09-09T07:17:59.014Z,16.13
2018-09-09T07:20:27.678Z,16.04
2018-09-09T07:22:56.346Z,16.03
2018-09-09T07:25:25.196Z,16.29
2018-09-09T07:27:53.824Z,16.42
2018-09-09T07:30:22.482Z,16.27
2018-09-09T07:32:51.343Z,16.37
2018-09-09T07:35:19.989Z,16.55
2018-09-09T07:37:49.034Z,16.37
2018-09-09T07:40:17.698Z,16.65
2018-09-09T07:42:46.353Z,16.83
2018-09-09T07:45:15.024Z,16.99
2018-09-09T07:47:43.782Z,17.08
2018-09-09T07:50:12.645Z,17.15
2018-09-09T07:52:41.332Z,17.30
2018-09-09T07:55:10.237Z,17.43
2018-09-09T07:57:38.990Z,17.61
2018-09-09T08:00:08.182Z,17.65
2018-09-09T08:02:36.984Z,17.80
2018-09-09T08:05:05.701Z,18.01
2018-09-09T08:07:34.660Z,18.17
2018-09-09T08:10:03.527Z,18.24
2018-09-09T08:12:32.237Z,18.27
2018-09-09T08:15:01.006Z,18.43
2018-09-09T08:17:29.850Z,18.56
2018-09-09T08:19:58.602Z,18.57
2018-09-09T08:22:27.689Z,18.71
2018-09-09T08:24:56.489Z,18.83
2018-09-09T08:27:25.143Z,19.01
2018-09-09T08:29:53.874Z,19.14
2018-09-09T08:32:22.567Z,19.25
2018-09-09T08:34:51.299Z,19.36
2018-09-09T08:37:20.338Z,19.34
2018-09-09T08:39:49.033Z,19.28
2018-09-09T08:42:17.724Z,19.09
2018-09-09T08:44:46.584Z,19.13
2018-09-09T08:47:15.497Z,19.41
2018-09-09T08:49:44.404Z,19.65
2018-09-09T08:52:13.185Z,19.76
2018-09-09T08:54:41.991Z,19.93
2018-09-09T08:57:10.884Z,20.09
2018-09-09T08:59:39.733Z,20.11
2018-09-09T09:02:08.417Z,20.15
2018-09-09T09:04:37.123Z,20.36
2018-09-09T09:07:05.903Z,20.25
2018-09-09T09:09:34.638Z,20.28
2018-09-09T09:12:08.595Z,20.53
2018-09-09T09:14:37.297Z,20.63
2018-09-09T09:17:06.276Z,20.62
2018-09-09T09:19:35.217Z,20.68
2018-09-09T09:22:04.122Z,20.78
2018-09-09T09:24:33.083Z,20.99
2018-09-09T09:27:01.791Z,20.93
2018-09-09T09:29:35.818Z,21.23
2018-09-09T09:32:05.292Z,20.51
2018-09-09T09:34:34.284Z,20.97
2018-09-09T09:37:03.049Z,21.14
2018-09-09T09:39:31.777Z,21.14
2018-09-09T09:42:00.630Z,21.18
2018-09-09T09:44:29.390Z,21.26
2018-09-09T09:46:58.198Z,21.35
2018-09-09T09:49:26.872Z,21.52
2018-09-09T09:51:55.629Z,21.71
2018-09-09T09:54:24.365Z,21.96
2018-09-09T09:56:53.091Z,22.06
2018-09-09T09:59:21.815Z,21.84
2018-09-09T10:01:50.534Z,21.74
2018-09-09T10:04:19.443Z,21.90
2018-09-09T10:06:48.097Z,21.84
2018-09-09T10:09:17.134Z,21.88
2018-09-09T10:11:46.012Z,22.01
2018-09-09T10:14:15.010Z,22.05
2018-09-09T10:16:43.802Z,21.91
2018-09-09T10:19:12.577Z,21.99
2018-09-09T10:21:41.209Z,21.64
2018-09-09T10:24:09.969Z,21.92
2018-09-09T10:26:38.730Z,22.25
2018-09-09T10:29:07.742Z,22.43
2018-09-09T10:31:36.384Z,22.55
2018-09-09T10:34:05.181Z,22.61
2018-09-09T10:36:33.916Z,22.66
2018-09-09T10:39:02.719Z,22.55
2018-09-09T10:41:31.481Z,22.72
2018-09-09T10:44:00.232Z,22.90
2018-09-09T10:46:29.060Z,23.00
2018-09-09T10:48:57.918Z,22.67
2018-09-09T10:51:26.654Z,22.82
2018-09-09T10:53:55.836Z,22.73
2018-09-09T10:56:24.736Z,22.64
2018-09-09T10:58:53.691Z,22.65
2018-09-09T11:01:22.496Z,22.58
2018-09-09T11:03:51.260Z,22.60
2018-09-09T11:06:20.396Z,22.82
2018-09-09T11:08:49.361Z,22.88
2018-09-09T11:11:18.093Z,22.90
2018-09-09T11:13:46.850Z,22.87
2018-09-09T11:16:15.662Z,22.83
2018-09-09T11:18:44.753Z,22.91
2018-09-09T11:21:13.724Z,22.89
2018-09-09T11:23:43.225Z,23.03
2018-09-09T11:26:12.301Z,22.88
2018-09-09T11:28:40.996Z,23.01
2018-09-09T11:31:09.896Z,23.27
2018-09-09T11:33:39.134Z,23.56
2018-09-09T11:36:07.831Z,23.97
2018-09-09T11:38:36.601Z,23.83
2018-09-09T11:41:05.387Z,24.19
2018-09-09T11:43:34.325Z,24.66
2018-09-09T11:46:03.173Z,24.57
2018-09-09T11:48:32.180Z,24.64
2018-09-09T11:51:01.078Z,24.86
2018-09-09T11:53:29.828Z,25.12
2018-09-09T11:55:59.091Z,25.74
2018-09-09T11:58:27.830Z,26.33
2018-09-09T12:00:56.485Z,26.41
2018-09-09T12:03:25.245Z,26.48
2018-09-09T12:05:53.953Z,26.67
2018-09-09T12:08:22.909Z,26.93
2018-09-09T12:10:51.651Z,27.46
2018-09-09T12:13:20.401Z,27.70
2018-09-09T12:15:49.297Z,28.05
2018-09-09T12:18:18.950Z,28.77
2018-09-09T12:20:48.269Z,28.53
2018-09-09T12:23:17.152Z,28.25
2018-09-09T12:25:45.807Z,28.06
2018-09-09T12:28:14.489Z,27.78
2018-09-09T12:30:43.186Z,27.78
2018-09-09T12:33:11.997Z,27.57
2018-09-09T12:35:40.698Z,26.80
2018-09-09T12:38:09.644Z,25.56
2018-09-09T12:40:38.322Z,26.02
2018-09-09T12:43:12.294Z,25.44
2018-09-09T12:45:46.290Z,25.20
2018-09-09T12:48:20.333Z,25.57
2018-09-09T12:50:49.027Z,26.04
2018-09-09T12:53:17.857Z,25.90
2018-09-09T12:55:46.675Z,25.78
2018-09-09T12:58:15.449Z,25.85
2018-09-09T13:00:44.329Z,27.44
2018-09-09T13:03:13.022Z,28.30
2018-09-09T13:05:42.006Z,28.51
2018-09-09T13:08:10.678Z,28.13
2018-09-09T13:10:39.357Z,28.50
2018-09-09T13:13:13.254Z,29.36
2018-09-09T13:15:42.137Z,28.33
2018-09-09T13:18:10.846Z,28.75
2018-09-09T13:20:39.521Z,29.35
2018-09-09T13:23:08.242Z,27.64
2018-09-09T13:25:37.056Z,29.55
2018-09-09T13:28:05.905Z,29.51
2018-09-09T13:30:34.588Z,28.26
2018-09-09T13:33:03.604Z,28.12
2018-09-09T13:35:32.545Z,28.04
2018-09-09T13:38:01.198Z,28.07
2018-09-09T13:40:29.983Z,27.84
2018-09-09T13:42:58.677Z,28.34
2018-09-09T13:45:27.423Z,28.52
2018-09-09T13:47:56.789Z,28.51
2018-09-09T13:50:25.704Z,28.21
2018-09-09T13:52:54.425Z,28.28
2018-09-09T13:55:23.151Z,27.83
2018-09-09T13:57:51.817Z,27.77
2018-09-09T14:00:20.500Z,27.68
2018-09-09T14:02:49.312Z,28.68
2018-09-09T14:05:18.491Z,30.18
2018-09-09T14:07:47.250Z,31.57
2018-09-09T14:10:16.099Z,32.49
2018-09-09T14:12:44.730Z,32.77
2018-09-09T14:15:13.512Z,31.32
2018-09-09T14:17:42.458Z,30.44
2018-09-09T14:20:11.177Z,29.21
2018-09-09T14:22:39.884Z,28.67
2018-09-09T14:25:08.606Z,28.09
2018-09-09T14:27:37.681Z,27.73
2018-09-09T14:30:06.954Z,27.42
2018-09-09T14:32:36.118Z,26.99
2018-09-09T14:35:04.862Z,26.95
2018-09-09T14:37:33.550Z,26.72
2018-09-09T14:40:02.219Z,26.86
2018-09-09T14:42:31.109Z,27.04
2018-09-09T14:44:59.802Z,27.38
2018-09-09T14:47:28.850Z,27.55
2018-09-09T14:49:57.700Z,26.83
2018-09-09T14:52:26.619Z,26.59
2018-09-09T14:54:55.386Z,26.13
2018-09-09T14:57:24.007Z,26.16
2018-09-09T14:59:52.788Z,26.08
2018-09-09T15:02:21.549Z,25.96
2018-09-09T15:04:50.573Z,25.91
2018-09-09T15:07:19.479Z,25.89
2018-09-09T15:09:48.209Z,25.95
2018-09-09T15:12:16.982Z,25.89
2018-09-09T15:14:45.671Z,25.77
2018-09-09T15:17:14.357Z,25.60
2018-09-09T15:19:43.311Z,25.65
2018-09-09T15:22:12.070Z,25.50
2018-09-09T15:24:41.074Z,25.43
2018-09-09T15:27:10.282Z,25.45
2018-09-09T15:29:39.108Z,25.44
2018-09-09T15:32:08.003Z,25.38
2018-09-09T15:34:36.981Z,25.27
2018-09-09T15:37:05.950Z,25.17
2018-09-09T15:39:34.742Z,25.18
2018-09-09T15:42:03.905Z,25.15
2018-09-09T15:44:32.820Z,24.84
2018-09-09T15:47:01.798Z,24.78
2018-09-09T15:49:31.430Z,24.62
2018-09-09T15:52:00.135Z,24.44
2018-09-09T15:54:28.893Z,24.47
2018-09-09T15:56:57.854Z,24.48
2018-09-09T15:59:26.706Z,24.57
2018-09-09T16:01:55.947Z,24.57
2018-09-09T16:04:24.627Z,24.51
2018-09-09T16:06:53.532Z,24.47
2018-09-09T16:09:22.450Z,24.35
2018-09-09T16:11:51.192Z,24.31
2018-09-09T16:14:19.890Z,24.33
2018-09-09T16:16:48.909Z,24.37
2018-09-09T16:19:17.594Z,24.46
2018-09-09T16:21:46.378Z,24.46
2018-09-09T16:24:15.102Z,24.46
2018-09-09T16:26:43.728Z,24.49
2018-09-09T16:29:12.549Z,24.44
2018-09-09T16:31:41.321Z,24.34
2018-09-09T16:34:10.230Z,24.34
2018-09-09T16:36:38.870Z,24.31
2018-09-09T16:39:08.222Z,24.17
2018-09-09T16:41:37.429Z,24.06
2018-09-09T16:44:06.385Z,24.02
2018-09-09T16:46:35.227Z,23.98
2018-09-09T16:49:03.959Z,23.89
2018-09-09T16:51:33.061Z,23.86
2018-09-09T16:54:01.770Z,23.77
2018-09-09T16:56:30.425Z,23.73
2018-09-09T16:58:59.522Z,23.72
2018-09-09T17:01:28.404Z,23.63
2018-09-09T17:03:57.106Z,23.56
2018-09-09T17:06:25.909Z,23.49
2018-09-09T17:08:54.615Z,23.48
2018-09-09T17:11:23.718Z,23.47
2018-09-09T17:13:52.600Z,23.42
2018-09-09T17:16:21.347Z,23.35
2018-09-09T17:18:50.085Z,23.24
2018-09-09T17:21:18.841Z,23.18
2018-09-09T17:23:47.473Z,23.09
2018-09-09T17:26:16.211Z,23.00
2018-09-09T17:28:44.893Z,22.95
2018-09-09T17:31:13.820Z,22.89
2018-09-09T17:33:42.624Z,22.83
2018-09-09T17:36:11.306Z,22.73
2018-09-09T17:38:40.198Z,22.61
2018-09-09T17:41:08.861Z,22.54
2018-09-09T17:43:37.531Z,22.47
2018-09-09T17:46:06.296Z,22.42
2018-09-09T17:48:35.225Z,22.45
2018-09-09T17:51:04.137Z,22.42
2018-09-09T17:53:33.111Z,22.35
2018-09-09T17:56:01.969Z,22.27
2018-09-09T17:58:30.916Z,22.21
2018-09-09T18:00:59.885Z,22.16
2018-09-09T18:03:28.687Z,22.09
2018-09-09T18:05:57.339Z,22.04
2018-09-09T18:08:26.027Z,22.04
2018-09-09T18:10:55.126Z,21.96
2018-09-09T18:13:24.023Z,21.89
2018-09-09T18:15:52.839Z,21.84
2018-09-09T18:18:21.534Z,21.84
2018-09-09T18:20:50.537Z,21.81
2018-09-09T18:23:18.971Z,21.75
2018-09-09T18:25:47.830Z,21.69
2018-09-09T18:28:16.796Z,21.62
2018-09-09T18:30:45.648Z,21.54
2018-09-09T18:33:14.445Z,21.51
2018-09-09T18:35:43.655Z,21.46
2018-09-09T18:38:12.355Z,21.38
2018-09-09T18:40:41.450Z,21.31
2018-09-09T18:43:10.527Z,21.29
2018-09-09T18:45:39.502Z,21.21
2018-09-09T18:48:08.254Z,21.17
2018-09-09T18:50:37.094Z,21.09
2018-09-09T18:53:06.003Z,20.99
2018-09-09T18:55:34.866Z,20.90
2018-09-09T18:58:03.529Z,20.81
2018-09-09T19:00:32.373Z,20.72
2018-09-09T19:03:01.027Z,20.65
2018-09-09T19:05:29.846Z,20.62
2018-09-09T19:07:58.751Z,20.53
2018-09-09T19:10:27.509Z,20.38
2018-09-09T19:12:56.206Z,20.28
2018-09-09T19:15:24.964Z,20.19
2018-09-09T19:17:54.080Z,20.10
2018-09-09T19:20:23.066Z,20.01
2018-09-09T19:22:51.799Z,19.97
2018-09-09T19:25:22.367Z,19.92
2018-09-09T19:27:51.068Z,19.88
2018-09-09T19:30:20.097Z,19.82
2018-09-09T19:32:48.901Z,19.78
2018-09-09T19:35:17.629Z,19.71
2018-09-09T19:37:46.299Z,19.64
2018-09-09T19:40:15.023Z,19.62
2018-09-09T19:42:43.939Z,19.57
2018-09-09T19:45:12.791Z,19.51
2018-09-09T19:47:41.505Z,19.43
2018-09-09T19:50:10.303Z,19.36
2018-09-09T19:52:39.153Z,19.26
2018-09-09T19:55:08.164Z,19.19
2018-09-09T19:57:36.890Z,19.13
2018-09-09T20:00:05.886Z,19.09
2018-09-09T20:02:34.673Z,19.04
2018-09-09T20:05:03.405Z,18.98
2018-09-09T20:07:32.241Z,18.98
2018-09-09T20:10:00.989Z,18.87
2018-09-09T20:12:29.915Z,18.80
2018-09-09T20:14:58.694Z,18.76
2018-09-09T20:17:27.326Z,18.75
2018-09-09T20:19:56.473Z,18.74
2018-09-09T20:22:25.251Z,18.70
2018-09-09T20:24:53.926Z,18.65
2018-09-09T20:27:22.689Z,18.60
2018-09-09T20:29:51.503Z,18.59
2018-09-09T20:32:20.537Z,18.52
2018-09-09T20:34:49.282Z,18.49
2018-09-09T20:37:18.073Z,18.41
2018-09-09T20:39:46.731Z,18.37
2018-09-09T20:42:15.828Z,18.31
2018-09-09T20:44:44.687Z,18.21
2018-09-09T20:47:13.438Z,18.18
2018-09-09T20:49:42.572Z,18.13
2018-09-09T20:52:11.466Z,18.08
2018-09-09T20:54:40.229Z,18.06
2018-09-09T20:57:08.935Z,18.06
2018-09-09T20:59:37.922Z,17.99
2018-09-09T21:02:07.163Z,17.92
2018-09-09T21:04:35.872Z,17.91
2018-09-09T21:07:04.629Z,17.88
2018-09-09T21:09:33.425Z,17.82
2018-09-09T21:12:02.314Z,17.72
2018-09-09T21:14:31.279Z,17.62
2018-09-09T21:16:59.937Z,17.49
2018-09-09T21:19:28.822Z,17.37
2018-09-09T21:21:57.513Z,17.30
2018-09-09T21:24:26.627Z,17.30
2018-09-09T21:26:55.522Z,17.23
2018-09-09T21:29:24.369Z,17.20
2018-09-09T21:31:53.073Z,17.16
2018-09-09T21:34:22.541Z,17.14
2018-09-09T21:36:51.374Z,17.09
2018-09-09T21:39:20.394Z,17.09
2018-09-09T21:41:49.060Z,17.03
2018-09-09T21:44:17.890Z,16.98
2018-09-09T21:46:46.861Z,16.93
2018-09-09T21:49:15.689Z,16.86
2018-09-09T21:51:44.530Z,16.82
2018-09-09T21:54:13.422Z,16.78
2018-09-09T21:56:42.137Z,16.71
2018-09-09T21:59:11.004Z,16.73
2018-09-09T22:01:45.022Z,16.73
2018-09-09T22:04:14.025Z,16.72
2018-09-09T22:06:42.686Z,16.81
2018-09-09T22:09:11.450Z,16.73
2018-09-09T22:11:40.280Z,16.70
2018-09-09T22:14:09.113Z,16.60
2018-09-09T22:16:37.920Z,16.55
2018-09-09T22:19:07.246Z,16.54
2018-09-09T22:21:35.915Z,16.45
2018-09-09T22:24:04.798Z,16.39
2018-09-09T22:26:33.592Z,16.46
2018-09-09T22:29:02.247Z,16.43
2018-09-09T22:31:30.988Z,16.35
2018-09-09T22:33:59.673Z,16.27
2018-09-09T22:36:28.481Z,16.24
2018-09-09T22:38:57.234Z,16.28
2018-09-09T22:41:25.926Z,16.19
2018-09-09T22:43:54.644Z,16.11
2018-09-09T22:46:23.433Z,16.07
2018-09-09T22:48:52.482Z,16.00
2018-09-09T22:51:21.182Z,15.93
2018-09-09T22:53:50.360Z,15.85
2018-09-09T22:56:19.195Z,15.82
2018-09-09T22:58:47.950Z,15.82
2018-09-09T23:01:16.903Z,15.86
2018-09-09T23:03:45.757Z,15.82
2018-09-09T23:06:14.618Z,15.74
2018-09-09T23:08:43.345Z,15.72
2018-09-09T23:11:12.353Z,15.63
2018-09-09T23:13:41.855Z,15.56
2018-09-09T23:16:10.611Z,15.49
2018-09-09T23:18:39.254Z,15.48
2018-09-09T23:21:08.207Z,15.41
2018-09-09T23:23:36.953Z,15.41
2018-09-09T23:26:06.206Z,15.37
2018-09-09T23:28:35.053Z,15.33
2018-09-09T23:31:04.002Z,15.29
2018-09-09T23:33:32.766Z,15.28
2018-09-09T23:36:01.409Z,15.22
2018-09-09T23:38:30.449Z,15.17
2018-09-09T23:40:59.147Z,15.14
2018-09-09T23:43:27.875Z,15.10
2018-09-09T23:45:56.613Z,15.04
2018-09-09T23:48:25.481Z,14.98
2018-09-09T23:50:54.529Z,14.98
2018-09-09T23:53:23.242Z,14.94
2018-09-09T23:55:51.933Z,14.89
2018-09-09T23:58:20.861Z,14.86
